sensor_id;sensor_type;location;lat;lon;timestamp;P1;durP1;ratioP1;P2;durP2;ratioP2
21657;SDS011;10990;48.174;9.782;2023-03-13T00:01:39;3.93;;;1.40;;
21657;SDS011;10990;48.174;9.782;2023-03-13T00:04:07;3.63;;;1.30;;
21657;SDS011;10990;48.174;9.782;2023-03-13T00:06:36;5.57;;;1.70;;
21657;SDS011;10990;48.174;9.782;2023-03-13T00:09:04;5.73;;;1.40;;
21657;SDS011;10990;48.174;9.782;2023-03-13T00:11:33;7.07;;;1.70;;
21657;SDS011;10990;48.174;9.782;2023-03-13T00:14:01;3.63;;;1.30;;
21657;SDS011;10990;48.174;9.782;2023-03-13T00:16:29;4.97;;;1.30;;
21657;SDS011;10990;48.174;9.782;2023-03-13T00:18:56;5.03;;;1.30;;
21657;SDS011;10990;48.174;9.782;2023-03-13T00:21:24;3.50;;;1.43;;
21657;SDS011;10990;48.174;9.782;2023-03-13T00:23:53;4.73;;;1.33;;
21657;SDS011;10990;48.174;9.782;2023-03-13T00:26:21;3.10;;;1.37;;
21657;SDS011;10990;48.174;9.782;2023-03-13T00:28:49;5.63;;;1.60;;
21657;SDS011;10990;48.174;9.782;2023-03-13T00:31:18;4.53;;;1.20;;
21657;SDS011;10990;48.174;9.782;2023-03-13T00:33:48;6.73;;;1.50;;
21657;SDS011;10990;48.174;9.782;2023-03-13T00:36:18;3.90;;;1.30;;
21657;SDS011;10990;48.174;9.782;2023-03-13T00:38:47;3.20;;;1.10;;
21657;SDS011;10990;48.174;9.782;2023-03-13T00:41:16;5.17;;;1.17;;
21657;SDS011;10990;48.174;9.782;2023-03-13T00:43:43;4.63;;;1.30;;
21657;SDS011;10990;48.174;9.782;2023-03-13T00:46:11;5.17;;;1.50;;
21657;SDS011;10990;48.174;9.782;2023-03-13T00:48:39;4.93;;;1.20;;
21657;SDS011;10990;48.174;9.782;2023-03-13T00:51:06;4.97;;;1.20;;
21657;SDS011;10990;48.174;9.782;2023-03-13T00:53:34;2.50;;;1.10;;
21657;SDS011;10990;48.174;9.782;2023-03-13T00:56:02;4.97;;;1.20;;
21657;SDS011;10990;48.174;9.782;2023-03-13T00:58:32;5.23;;;1.40;;
21657;SDS011;10990;48.174;9.782;2023-03-13T01:01:05;3.77;;;0.97;;
21657;SDS011;10990;48.174;9.782;2023-03-13T01:03:33;5.57;;;1.70;;
21657;SDS011;10990;48.174;9.782;2023-03-13T01:06:01;3.63;;;1.17;;
21657;SDS011;10990;48.174;9.782;2023-03-13T01:08:29;9.23;;;1.70;;
21657;SDS011;10990;48.174;9.782;2023-03-13T01:10:57;6.73;;;1.77;;
21657;SDS011;10990;48.174;9.782;2023-03-13T01:13:25;5.03;;;1.50;;
21657;SDS011;10990;48.174;9.782;2023-03-13T01:15:53;5.13;;;1.20;;
21657;SDS011;10990;48.174;9.782;2023-03-13T01:18:20;3.27;;;1.13;;
21657;SDS011;10990;48.174;9.782;2023-03-13T01:20:47;2.97;;;1.10;;
21657;SDS011;10990;48.174;9.782;2023-03-13T01:23:13;5.37;;;1.37;;
21657;SDS011;10990;48.174;9.782;2023-03-13T01:25:40;5.37;;;1.27;;
21657;SDS011;10990;48.174;9.782;2023-03-13T01:28:07;4.13;;;1.30;;
21657;SDS011;10990;48.174;9.782;2023-03-13T01:30:38;2.80;;;1.10;;
21657;SDS011;10990;48.174;9.782;2023-03-13T01:33:09;3.40;;;1.10;;
21657;SDS011;10990;48.174;9.782;2023-03-13T01:35:36;3.70;;;1.23;;
21657;SDS011;10990;48.174;9.782;2023-03-13T01:38:03;6.53;;;1.63;;
21657;SDS011;10990;48.174;9.782;2023-03-13T01:40:29;3.27;;;1.33;;
21657;SDS011;10990;48.174;9.782;2023-03-13T01:42:57;5.53;;;1.50;;
21657;SDS011;10990;48.174;9.782;2023-03-13T01:48:20;5.63;;;1.27;;
21657;SDS011;10990;48.174;9.782;2023-03-13T01:50:51;7.13;;;1.53;;
21657;SDS011;10990;48.174;9.782;2023-03-13T01:53:25;2.30;;;1.00;;
21657;SDS011;10990;48.174;9.782;2023-03-13T01:55:53;3.77;;;1.20;;
21657;SDS011;10990;48.174;9.782;2023-03-13T01:58:21;3.23;;;1.23;;
21657;SDS011;10990;48.174;9.782;2023-03-13T02:00:49;3.17;;;1.10;;
21657;SDS011;10990;48.174;9.782;2023-03-13T02:03:16;4.23;;;1.20;;
21657;SDS011;10990;48.174;9.782;2023-03-13T02:05:46;5.30;;;1.23;;
21657;SDS011;10990;48.174;9.782;2023-03-13T02:08:16;3.53;;;1.00;;
21657;SDS011;10990;48.174;9.782;2023-03-13T02:10:48;3.53;;;1.10;;
21657;SDS011;10990;48.174;9.782;2023-03-13T02:13:17;1.83;;;1.03;;
21657;SDS011;10990;48.174;9.782;2023-03-13T02:15:45;2.53;;;1.03;;
21657;SDS011;10990;48.174;9.782;2023-03-13T02:18:13;4.20;;;1.17;;
21657;SDS011;10990;48.174;9.782;2023-03-13T02:20:40;4.40;;;1.27;;
21657;SDS011;10990;48.174;9.782;2023-03-13T02:23:11;2.77;;;1.17;;
21657;SDS011;10990;48.174;9.782;2023-03-13T02:25:46;4.33;;;1.20;;
21657;SDS011;10990;48.174;9.782;2023-03-13T02:28:19;2.73;;;1.17;;
21657;SDS011;10990;48.174;9.782;2023-03-13T02:30:49;3.77;;;1.37;;
21657;SDS011;10990;48.174;9.782;2023-03-13T02:33:19;2.77;;;1.20;;
21657;SDS011;10990;48.174;9.782;2023-03-13T02:35:48;3.97;;;1.20;;
21657;SDS011;10990;48.174;9.782;2023-03-13T02:38:18;2.43;;;1.20;;
21657;SDS011;10990;48.174;9.782;2023-03-13T02:40:49;4.80;;;1.40;;
21657;SDS011;10990;48.174;9.782;2023-03-13T02:43:19;4.13;;;1.33;;
21657;SDS011;10990;48.174;9.782;2023-03-13T02:48:41;3.37;;;1.10;;
21657;SDS011;10990;48.174;9.782;2023-03-13T02:51:11;4.70;;;1.27;;
21657;SDS011;10990;48.174;9.782;2023-03-13T02:53:42;1.87;;;0.80;;
21657;SDS011;10990;48.174;9.782;2023-03-13T02:56:13;4.77;;;1.00;;
21657;SDS011;10990;48.174;9.782;2023-03-13T02:58:43;3.50;;;1.23;;
21657;SDS011;10990;48.174;9.782;2023-03-13T03:01:10;2.97;;;1.03;;
21657;SDS011;10990;48.174;9.782;2023-03-13T03:03:38;3.20;;;1.07;;
21657;SDS011;10990;48.174;9.782;2023-03-13T03:06:05;3.73;;;1.10;;
21657;SDS011;10990;48.174;9.782;2023-03-13T03:08:33;2.87;;;1.20;;
21657;SDS011;10990;48.174;9.782;2023-03-13T03:11:02;2.40;;;1.10;;
21657;SDS011;10990;48.174;9.782;2023-03-13T03:13:32;1.80;;;1.10;;
21657;SDS011;10990;48.174;9.782;2023-03-13T03:16:00;3.10;;;0.90;;
21657;SDS011;10990;48.174;9.782;2023-03-13T03:18:31;5.87;;;1.27;;
21657;SDS011;10990;48.174;9.782;2023-03-13T03:20:58;4.50;;;1.10;;
21657;SDS011;10990;48.174;9.782;2023-03-13T03:23:25;2.87;;;1.10;;
21657;SDS011;10990;48.174;9.782;2023-03-13T03:25:51;4.10;;;1.30;;
21657;SDS011;10990;48.174;9.782;2023-03-13T03:28:18;1.63;;;1.10;;
21657;SDS011;10990;48.174;9.782;2023-03-13T03:30:46;3.87;;;1.00;;
21657;SDS011;10990;48.174;9.782;2023-03-13T03:33:14;2.40;;;1.07;;
21657;SDS011;10990;48.174;9.782;2023-03-13T03:35:40;2.53;;;1.10;;
21657;SDS011;10990;48.174;9.782;2023-03-13T03:38:08;3.33;;;1.33;;
21657;SDS011;10990;48.174;9.782;2023-03-13T03:40:35;1.83;;;0.90;;
21657;SDS011;10990;48.174;9.782;2023-03-13T03:43:02;3.07;;;1.10;;
21657;SDS011;10990;48.174;9.782;2023-03-13T03:45:29;2.63;;;1.10;;
21657;SDS011;10990;48.174;9.782;2023-03-13T03:47:57;4.33;;;1.40;;
21657;SDS011;10990;48.174;9.782;2023-03-13T03:50:25;3.77;;;1.07;;
21657;SDS011;10990;48.174;9.782;2023-03-13T03:52:57;3.97;;;1.10;;
21657;SDS011;10990;48.174;9.782;2023-03-13T03:55:24;1.63;;;0.90;;
21657;SDS011;10990;48.174;9.782;2023-03-13T03:57:51;3.80;;;1.10;;
21657;SDS011;10990;48.174;9.782;2023-03-13T04:00:34;3.13;;;1.20;;
21657;SDS011;10990;48.174;9.782;2023-03-13T04:03:02;2.93;;;1.03;;
21657;SDS011;10990;48.174;9.782;2023-03-13T04:05:29;2.07;;;0.93;;
21657;SDS011;10990;48.174;9.782;2023-03-13T04:07:55;2.17;;;0.90;;
21657;SDS011;10990;48.174;9.782;2023-03-13T04:10:22;2.10;;;0.80;;
21657;SDS011;10990;48.174;9.782;2023-03-13T04:12:49;1.27;;;1.00;;
21657;SDS011;10990;48.174;9.782;2023-03-13T04:15:16;4.03;;;1.30;;
21657;SDS011;10990;48.174;9.782;2023-03-13T04:17:43;4.57;;;0.90;;
21657;SDS011;10990;48.174;9.782;2023-03-13T04:20:12;2.60;;;1.10;;
21657;SDS011;10990;48.174;9.782;2023-03-13T04:22:39;2.80;;;0.90;;
21657;SDS011;10990;48.174;9.782;2023-03-13T04:25:07;1.73;;;1.00;;
21657;SDS011;10990;48.174;9.782;2023-03-13T04:27:35;2.53;;;1.00;;
21657;SDS011;10990;48.174;9.782;2023-03-13T04:30:03;4.00;;;1.20;;
21657;SDS011;10990;48.174;9.782;2023-03-13T04:32:42;3.00;;;1.07;;
21657;SDS011;10990;48.174;9.782;2023-03-13T04:35:31;2.33;;;0.90;;
21657;SDS011;10990;48.174;9.782;2023-03-13T04:38:12;2.40;;;0.80;;
21657;SDS011;10990;48.174;9.782;2023-03-13T04:40:54;1.87;;;0.80;;
21657;SDS011;10990;48.174;9.782;2023-03-13T04:43:36;1.53;;;0.90;;
21657;SDS011;10990;48.174;9.782;2023-03-13T04:46:23;3.63;;;0.80;;
21657;SDS011;10990;48.174;9.782;2023-03-13T04:49:09;2.17;;;0.97;;
21657;SDS011;10990;48.174;9.782;2023-03-13T04:51:56;1.63;;;0.80;;
21657;SDS011;10990;48.174;9.782;2023-03-13T04:54:48;2.90;;;1.30;;
21657;SDS011;10990;48.174;9.782;2023-03-13T04:57:40;1.67;;;0.90;;
21657;SDS011;10990;48.174;9.782;2023-03-13T05:00:33;1.63;;;0.90;;
21657;SDS011;10990;48.174;9.782;2023-03-13T05:03:29;3.33;;;0.90;;
21657;SDS011;10990;48.174;9.782;2023-03-13T05:06:18;2.00;;;1.10;;
21657;SDS011;10990;48.174;9.782;2023-03-13T05:09:05;2.53;;;1.00;;
21657;SDS011;10990;48.174;9.782;2023-03-13T05:11:51;1.77;;;0.80;;
21657;SDS011;10990;48.174;9.782;2023-03-13T05:14:28;2.50;;;1.00;;
21657;SDS011;10990;48.174;9.782;2023-03-13T05:17:30;2.53;;;0.80;;
21657;SDS011;10990;48.174;9.782;2023-03-13T05:20:16;2.00;;;0.90;;
21657;SDS011;10990;48.174;9.782;2023-03-13T05:22:51;1.23;;;0.80;;
21657;SDS011;10990;48.174;9.782;2023-03-13T05:25:36;1.03;;;0.70;;
21657;SDS011;10990;48.174;9.782;2023-03-13T05:28:15;1.87;;;1.00;;
21657;SDS011;10990;48.174;9.782;2023-03-13T05:31:05;2.03;;;0.87;;
21657;SDS011;10990;48.174;9.782;2023-03-13T05:33:50;2.07;;;1.00;;
21657;SDS011;10990;48.174;9.782;2023-03-13T05:36:37;2.30;;;0.97;;
21657;SDS011;10990;48.174;9.782;2023-03-13T05:39:22;1.87;;;0.80;;
21657;SDS011;10990;48.174;9.782;2023-03-13T05:42:09;1.63;;;1.10;;
21657;SDS011;10990;48.174;9.782;2023-03-13T05:44:48;1.80;;;0.83;;
21657;SDS011;10990;48.174;9.782;2023-03-13T05:47:14;6.23;;;1.00;;
21657;SDS011;10990;48.174;9.782;2023-03-13T05:50:00;2.57;;;0.90;;
21657;SDS011;10990;48.174;9.782;2023-03-13T05:52:46;2.00;;;1.00;;
21657;SDS011;10990;48.174;9.782;2023-03-13T05:55:32;1.37;;;0.90;;
21657;SDS011;10990;48.174;9.782;2023-03-13T05:58:26;1.57;;;1.00;;
21657;SDS011;10990;48.174;9.782;2023-03-13T06:01:05;1.73;;;0.80;;
21657;SDS011;10990;48.174;9.782;2023-03-13T06:03:49;1.50;;;1.00;;
21657;SDS011;10990;48.174;9.782;2023-03-13T06:06:16;1.57;;;0.87;;
21657;SDS011;10990;48.174;9.782;2023-03-13T06:08:50;2.10;;;1.00;;
21657;SDS011;10990;48.174;9.782;2023-03-13T06:11:17;3.50;;;1.00;;
21657;SDS011;10990;48.174;9.782;2023-03-13T06:13:46;1.20;;;0.80;;
21657;SDS011;10990;48.174;9.782;2023-03-13T06:16:23;1.03;;;1.00;;
21657;SDS011;10990;48.174;9.782;2023-03-13T06:18:51;0.83;;;0.70;;
21657;SDS011;10990;48.174;9.782;2023-03-13T06:21:18;1.50;;;0.80;;
21657;SDS011;10990;48.174;9.782;2023-03-13T06:23:45;1.83;;;0.80;;
21657;SDS011;10990;48.174;9.782;2023-03-13T06:26:11;1.77;;;0.70;;
21657;SDS011;10990;48.174;9.782;2023-03-13T06:28:38;2.47;;;0.90;;
21657;SDS011;10990;48.174;9.782;2023-03-13T06:31:06;2.90;;;0.90;;
21657;SDS011;10990;48.174;9.782;2023-03-13T06:33:33;2.07;;;0.87;;
21657;SDS011;10990;48.174;9.782;2023-03-13T06:36:01;1.43;;;0.80;;
21657;SDS011;10990;48.174;9.782;2023-03-13T06:38:29;1.17;;;0.70;;
21657;SDS011;10990;48.174;9.782;2023-03-13T06:40:56;1.80;;;0.97;;
21657;SDS011;10990;48.174;9.782;2023-03-13T06:43:23;0.90;;;0.80;;
21657;SDS011;10990;48.174;9.782;2023-03-13T06:45:50;1.00;;;0.80;;
21657;SDS011;10990;48.174;9.782;2023-03-13T06:48:18;1.20;;;0.80;;
21657;SDS011;10990;48.174;9.782;2023-03-13T06:50:47;1.63;;;0.83;;
21657;SDS011;10990;48.174;9.782;2023-03-13T06:53:15;2.40;;;0.80;;
21657;SDS011;10990;48.174;9.782;2023-03-13T06:55:43;1.47;;;0.80;;
21657;SDS011;10990;48.174;9.782;2023-03-13T06:58:11;2.10;;;1.20;;
21657;SDS011;10990;48.174;9.782;2023-03-13T07:00:38;1.80;;;0.73;;
21657;SDS011;10990;48.174;9.782;2023-03-13T07:03:06;2.00;;;1.00;;
21657;SDS011;10990;48.174;9.782;2023-03-13T07:05:34;1.07;;;0.70;;
21657;SDS011;10990;48.174;9.782;2023-03-13T07:08:01;2.50;;;0.90;;
21657;SDS011;10990;48.174;9.782;2023-03-13T07:10:30;1.67;;;0.97;;
21657;SDS011;10990;48.174;9.782;2023-03-13T07:12:57;1.80;;;1.03;;
21657;SDS011;10990;48.174;9.782;2023-03-13T07:15:24;2.43;;;1.00;;
21657;SDS011;10990;48.174;9.782;2023-03-13T07:17:50;0.67;;;0.67;;
21657;SDS011;10990;48.174;9.782;2023-03-13T07:20:17;1.37;;;0.77;;
21657;SDS011;10990;48.174;9.782;2023-03-13T07:22:50;2.20;;;0.83;;
21657;SDS011;10990;48.174;9.782;2023-03-13T07:25:18;1.83;;;0.80;;
21657;SDS011;10990;48.174;9.782;2023-03-13T07:27:45;2.03;;;0.80;;
21657;SDS011;10990;48.174;9.782;2023-03-13T07:30:12;2.27;;;0.93;;
21657;SDS011;10990;48.174;9.782;2023-03-13T07:32:39;3.23;;;0.73;;
21657;SDS011;10990;48.174;9.782;2023-03-13T07:35:06;1.70;;;0.70;;
21657;SDS011;10990;48.174;9.782;2023-03-13T07:37:33;1.67;;;0.60;;
21657;SDS011;10990;48.174;9.782;2023-03-13T07:40:01;2.63;;;1.00;;
21657;SDS011;10990;48.174;9.782;2023-03-13T07:42:29;1.20;;;0.70;;
21657;SDS011;10990;48.174;9.782;2023-03-13T07:44:56;1.88;;;0.80;;
21657;SDS011;10990;48.174;9.782;2023-03-13T07:47:22;1.20;;;0.90;;
21657;SDS011;10990;48.174;9.782;2023-03-13T07:49:49;1.03;;;0.80;;
21657;SDS011;10990;48.174;9.782;2023-03-13T07:52:18;1.70;;;0.70;;
21657;SDS011;10990;48.174;9.782;2023-03-13T07:54:45;1.80;;;0.90;;
21657;SDS011;10990;48.174;9.782;2023-03-13T07:57:13;1.97;;;0.70;;
21657;SDS011;10990;48.174;9.782;2023-03-13T07:59:39;2.00;;;0.80;;
21657;SDS011;10990;48.174;9.782;2023-03-13T08:02:07;2.03;;;0.90;;
21657;SDS011;10990;48.174;9.782;2023-03-13T08:04:34;1.20;;;0.80;;
21657;SDS011;10990;48.174;9.782;2023-03-13T08:07:01;2.67;;;0.80;;
21657;SDS011;10990;48.174;9.782;2023-03-13T08:09:30;3.00;;;0.80;;
21657;SDS011;10990;48.174;9.782;2023-03-13T08:11:57;1.35;;;0.80;;
21657;SDS011;10990;48.174;9.782;2023-03-13T08:14:25;1.45;;;0.70;;
21657;SDS011;10990;48.174;9.782;2023-03-13T08:16:52;1.33;;;0.80;;
21657;SDS011;10990;48.174;9.782;2023-03-13T08:19:19;2.53;;;0.70;;
21657;SDS011;10990;48.174;9.782;2023-03-13T08:21:45;1.45;;;0.70;;
21657;SDS011;10990;48.174;9.782;2023-03-13T08:24:12;1.60;;;0.75;;
21657;SDS011;10990;48.174;9.782;2023-03-13T08:26:41;1.75;;;0.70;;
21657;SDS011;10990;48.174;9.782;2023-03-13T08:29:09;1.20;;;0.90;;
21657;SDS011;10990;48.174;9.782;2023-03-13T08:31:40;2.78;;;0.80;;
21657;SDS011;10990;48.174;9.782;2023-03-13T08:34:10;0.83;;;0.80;;
21657;SDS011;10990;48.174;9.782;2023-03-13T08:36:38;1.40;;;0.60;;
21657;SDS011;10990;48.174;9.782;2023-03-13T08:39:06;1.45;;;0.80;;
21657;SDS011;10990;48.174;9.782;2023-03-13T08:41:36;1.23;;;0.70;;
21657;SDS011;10990;48.174;9.782;2023-03-13T08:44:05;1.38;;;0.80;;
21657;SDS011;10990;48.174;9.782;2023-03-13T08:46:33;1.83;;;0.70;;
21657;SDS011;10990;48.174;9.782;2023-03-13T08:49:03;1.15;;;0.80;;
21657;SDS011;10990;48.174;9.782;2023-03-13T08:51:31;1.13;;;0.65;;
21657;SDS011;10990;48.174;9.782;2023-03-13T08:53:57;2.03;;;0.70;;
21657;SDS011;10990;48.174;9.782;2023-03-13T08:56:25;1.35;;;0.80;;
21657;SDS011;10990;48.174;9.782;2023-03-13T08:58:54;1.98;;;0.68;;
21657;SDS011;10990;48.174;9.782;2023-03-13T09:01:23;0.65;;;0.63;;
21657;SDS011;10990;48.174;9.782;2023-03-13T09:03:51;1.55;;;0.68;;
21657;SDS011;10990;48.174;9.782;2023-03-13T09:06:19;1.90;;;0.60;;
21657;SDS011;10990;48.174;9.782;2023-03-13T09:08:46;0.80;;;0.60;;
21657;SDS011;10990;48.174;9.782;2023-03-13T09:11:13;0.88;;;0.60;;
21657;SDS011;10990;48.174;9.782;2023-03-13T09:13:42;1.15;;;0.77;;
21657;SDS011;10990;48.174;9.782;2023-03-13T09:16:11;1.75;;;0.60;;
21657;SDS011;10990;48.174;9.782;2023-03-13T09:18:39;1.33;;;0.75;;
21657;SDS011;10990;48.174;9.782;2023-03-13T09:21:07;1.55;;;0.70;;
21657;SDS011;10990;48.174;9.782;2023-03-13T09:23:36;3.03;;;0.73;;
21657;SDS011;10990;48.174;9.782;2023-03-13T09:26:04;2.50;;;0.60;;
21657;SDS011;10990;48.174;9.782;2023-03-13T09:28:32;3.45;;;0.77;;
21657;SDS011;10990;48.174;9.782;2023-03-13T09:31:05;4.50;;;0.88;;
21657;SDS011;10990;48.174;9.782;2023-03-13T09:33:32;0.70;;;0.68;;
21657;SDS011;10990;48.174;9.782;2023-03-13T09:35:59;1.63;;;0.75;;
21657;SDS011;10990;48.174;9.782;2023-03-13T09:38:26;0.93;;;0.60;;
21657;SDS011;10990;48.174;9.782;2023-03-13T09:40:54;2.30;;;0.65;;
21657;SDS011;10990;48.174;9.782;2023-03-13T09:43:24;0.95;;;0.70;;
21657;SDS011;10990;48.174;9.782;2023-03-13T09:46:00;1.48;;;0.77;;
21657;SDS011;10990;48.174;9.782;2023-03-13T09:48:32;2.25;;;0.90;;
21657;SDS011;10990;48.174;9.782;2023-03-13T09:51:02;4.47;;;0.75;;
21657;SDS011;10990;48.174;9.782;2023-03-13T09:53:35;1.23;;;0.70;;
21657;SDS011;10990;48.174;9.782;2023-03-13T09:56:11;1.73;;;0.80;;
21657;SDS011;10990;48.174;9.782;2023-03-13T09:58:43;1.67;;;0.80;;
21657;SDS011;10990;48.174;9.782;2023-03-13T10:01:16;1.42;;;0.77;;
21657;SDS011;10990;48.174;9.782;2023-03-13T10:03:52;0.98;;;0.80;;
21657;SDS011;10990;48.174;9.782;2023-03-13T10:06:24;1.80;;;0.80;;
21657;SDS011;10990;48.174;9.782;2023-03-13T10:08:56;1.75;;;0.90;;
21657;SDS011;10990;48.174;9.782;2023-03-13T10:11:28;1.95;;;0.80;;
21657;SDS011;10990;48.174;9.782;2023-03-13T10:14:03;1.08;;;0.90;;
21657;SDS011;10990;48.174;9.782;2023-03-13T10:16:37;1.77;;;0.80;;
21657;SDS011;10990;48.174;9.782;2023-03-13T10:19:10;1.00;;;0.70;;
21657;SDS011;10990;48.174;9.782;2023-03-13T10:21:39;1.00;;;0.70;;
21657;SDS011;10990;48.174;9.782;2023-03-13T10:24:12;1.30;;;0.88;;
21657;SDS011;10990;48.174;9.782;2023-03-13T10:26:43;1.15;;;0.90;;
21657;SDS011;10990;48.174;9.782;2023-03-13T10:29:15;1.17;;;0.90;;
21657;SDS011;10990;48.174;9.782;2023-03-13T10:31:48;1.13;;;0.90;;
21657;SDS011;10990;48.174;9.782;2023-03-13T10:34:21;1.75;;;0.90;;
21657;SDS011;10990;48.174;9.782;2023-03-13T10:36:49;1.30;;;0.80;;
21657;SDS011;10990;48.174;9.782;2023-03-13T10:39:20;1.58;;;0.95;;
21657;SDS011;10990;48.174;9.782;2023-03-13T10:41:49;2.42;;;0.90;;
21657;SDS011;10990;48.174;9.782;2023-03-13T10:44:22;1.73;;;1.00;;
21657;SDS011;10990;48.174;9.782;2023-03-13T10:46:57;2.95;;;1.00;;
21657;SDS011;10990;48.174;9.782;2023-03-13T10:49:25;1.58;;;1.00;;
21657;SDS011;10990;48.174;9.782;2023-03-13T10:51:54;2.05;;;0.90;;
21657;SDS011;10990;48.174;9.782;2023-03-13T10:54:22;2.33;;;0.95;;
21657;SDS011;10990;48.174;9.782;2023-03-13T10:56:52;2.22;;;1.00;;
21657;SDS011;10990;48.174;9.782;2023-03-13T10:59:38;1.23;;;0.90;;
21657;SDS011;10990;48.174;9.782;2023-03-13T11:02:14;3.35;;;0.90;;
21657;SDS011;10990;48.174;9.782;2023-03-13T11:04:47;2.40;;;0.80;;
21657;SDS011;10990;48.174;9.782;2023-03-13T11:07:19;2.08;;;1.00;;
21657;SDS011;10990;48.174;9.782;2023-03-13T11:09:56;2.17;;;0.90;;
21657;SDS011;10990;48.174;9.782;2023-03-13T11:12:25;2.85;;;1.00;;
21657;SDS011;10990;48.174;9.782;2023-03-13T11:14:56;3.08;;;0.98;;
21657;SDS011;10990;48.174;9.782;2023-03-13T11:17:25;1.98;;;1.10;;
21657;SDS011;10990;48.174;9.782;2023-03-13T11:20:10;2.30;;;0.98;;
21657;SDS011;10990;48.174;9.782;2023-03-13T11:23:04;4.03;;;1.05;;
21657;SDS011;10990;48.174;9.782;2023-03-13T11:25:41;1.83;;;0.93;;
21657;SDS011;10990;48.174;9.782;2023-03-13T11:28:29;1.58;;;0.82;;
21657;SDS011;10990;48.174;9.782;2023-03-13T11:31:08;1.35;;;0.77;;
21657;SDS011;10990;48.174;9.782;2023-03-13T11:33:42;2.88;;;0.80;;
21657;SDS011;10990;48.174;9.782;2023-03-13T11:36:21;2.00;;;1.13;;
21657;SDS011;10990;48.174;9.782;2023-03-13T11:38:53;2.13;;;1.00;;
21657;SDS011;10990;48.174;9.782;2023-03-13T11:41:36;2.05;;;1.13;;
21657;SDS011;10990;48.174;9.782;2023-03-13T11:50:05;2.38;;;1.00;;
21657;SDS011;10990;48.174;9.782;2023-03-13T11:52:43;2.65;;;1.20;;
21657;SDS011;10990;48.174;9.782;2023-03-13T11:55:24;1.30;;;0.93;;
21657;SDS011;10990;48.174;9.782;2023-03-13T11:58:10;1.60;;;0.90;;
21657;SDS011;10990;48.174;9.782;2023-03-13T12:00:53;2.22;;;1.10;;
21657;SDS011;10990;48.174;9.782;2023-03-13T12:03:26;2.45;;;1.00;;
21657;SDS011;10990;48.174;9.782;2023-03-13T12:05:59;2.15;;;1.00;;
21657;SDS011;10990;48.174;9.782;2023-03-13T12:08:29;2.75;;;1.05;;
21657;SDS011;10990;48.174;9.782;2023-03-13T12:11:04;1.20;;;1.05;;
21657;SDS011;10990;48.174;9.782;2023-03-13T12:13:39;2.00;;;1.10;;
21657;SDS011;10990;48.174;9.782;2023-03-13T12:16:11;1.60;;;1.05;;
21657;SDS011;10990;48.174;9.782;2023-03-13T12:18:42;2.40;;;1.20;;
21657;SDS011;10990;48.174;9.782;2023-03-13T12:21:13;3.08;;;1.00;;
21657;SDS011;10990;48.174;9.782;2023-03-13T12:23:45;4.15;;;0.90;;
21657;SDS011;10990;48.174;9.782;2023-03-13T12:26:19;1.65;;;1.02;;
21657;SDS011;10990;48.174;9.782;2023-03-13T12:28:47;2.88;;;0.95;;
21657;SDS011;10990;48.174;9.782;2023-03-13T12:31:24;2.03;;;1.00;;
21657;SDS011;10990;48.174;9.782;2023-03-13T12:33:55;2.75;;;1.00;;
21657;SDS011;10990;48.174;9.782;2023-03-13T12:36:29;3.05;;;0.80;;
21657;SDS011;10990;48.174;9.782;2023-03-13T12:39:01;1.15;;;0.80;;
21657;SDS011;10990;48.174;9.782;2023-03-13T12:41:41;2.80;;;0.80;;
21657;SDS011;10990;48.174;9.782;2023-03-13T12:44:10;2.03;;;0.70;;
21657;SDS011;10990;48.174;9.782;2023-03-13T12:46:43;4.88;;;0.90;;
21657;SDS011;10990;48.174;9.782;2023-03-13T12:49:30;1.17;;;0.90;;
21657;SDS011;10990;48.174;9.782;2023-03-13T12:58:37;0.52;;;0.52;;
21657;SDS011;10990;48.174;9.782;2023-03-13T13:01:11;5.88;;;1.40;;
21657;SDS011;10990;48.174;9.782;2023-03-13T13:03:49;1.98;;;1.00;;
21657;SDS011;10990;48.174;9.782;2023-03-13T13:06:19;1.27;;;0.80;;
21657;SDS011;10990;48.174;9.782;2023-03-13T13:08:47;1.35;;;0.88;;
21657;SDS011;10990;48.174;9.782;2023-03-13T13:17:39;1.08;;;0.60;;
21657;SDS011;10990;48.174;9.782;2023-03-13T13:20:40;3.25;;;1.15;;
21657;SDS011;10990;48.174;9.782;2023-03-13T13:23:19;0.93;;;0.70;;
21657;SDS011;10990;48.174;9.782;2023-03-13T13:25:49;1.55;;;0.80;;
21657;SDS011;10990;48.174;9.782;2023-03-13T13:31:02;3.53;;;1.10;;
21657;SDS011;10990;48.174;9.782;2023-03-13T13:34:07;2.63;;;0.73;;
21657;SDS011;10990;48.174;9.782;2023-03-13T13:37:26;1.05;;;0.60;;
21657;SDS011;10990;48.174;9.782;2023-03-13T13:40:08;2.08;;;0.70;;
21657;SDS011;10990;48.174;9.782;2023-03-13T13:42:49;1.00;;;0.63;;
21657;SDS011;10990;48.174;9.782;2023-03-13T13:45:24;2.17;;;0.90;;
21657;SDS011;10990;48.174;9.782;2023-03-13T13:53:43;3.13;;;0.68;;
21657;SDS011;10990;48.174;9.782;2023-03-13T13:56:26;1.85;;;0.70;;
21657;SDS011;10990;48.174;9.782;2023-03-13T13:59:21;1.58;;;0.80;;
21657;SDS011;10990;48.174;9.782;2023-03-13T14:02:09;0.60;;;0.60;;
21657;SDS011;10990;48.174;9.782;2023-03-13T14:04:48;1.30;;;0.65;;
21657;SDS011;10990;48.174;9.782;2023-03-13T14:07:22;1.73;;;0.60;;
21657;SDS011;10990;48.174;9.782;2023-03-13T14:09:58;2.58;;;1.02;;
21657;SDS011;10990;48.174;9.782;2023-03-13T14:12:28;1.58;;;0.70;;
21657;SDS011;10990;48.174;9.782;2023-03-13T14:17:49;1.75;;;0.60;;
21657;SDS011;10990;48.174;9.782;2023-03-13T14:20:25;2.65;;;0.90;;
21657;SDS011;10990;48.174;9.782;2023-03-13T14:22:54;1.02;;;0.68;;
21657;SDS011;10990;48.174;9.782;2023-03-13T14:25:24;2.78;;;0.65;;
21657;SDS011;10990;48.174;9.782;2023-03-13T14:27:52;0.50;;;0.50;;
21657;SDS011;10990;48.174;9.782;2023-03-13T14:30:20;3.08;;;0.80;;
21657;SDS011;10990;48.174;9.782;2023-03-13T14:32:49;0.60;;;0.60;;
21657;SDS011;10990;48.174;9.782;2023-03-13T14:35:17;1.73;;;0.70;;
21657;SDS011;10990;48.174;9.782;2023-03-13T14:37:47;3.17;;;0.70;;
21657;SDS011;10990;48.174;9.782;2023-03-13T14:40:19;1.23;;;0.63;;
21657;SDS011;10990;48.174;9.782;2023-03-13T14:42:51;1.02;;;0.60;;
21657;SDS011;10990;48.174;9.782;2023-03-13T14:45:21;0.80;;;0.50;;
21657;SDS011;10990;48.174;9.782;2023-03-13T14:47:50;0.68;;;0.50;;
21657;SDS011;10990;48.174;9.782;2023-03-13T14:50:18;3.00;;;0.98;;
21657;SDS011;10990;48.174;9.782;2023-03-13T14:52:48;1.48;;;0.63;;
21657;SDS011;10990;48.174;9.782;2023-03-13T14:55:28;0.98;;;0.50;;
21657;SDS011;10990;48.174;9.782;2023-03-13T14:57:59;1.75;;;0.52;;
21657;SDS011;10990;48.174;9.782;2023-03-13T15:00:29;0.73;;;0.50;;
21657;SDS011;10990;48.174;9.782;2023-03-13T15:03:11;1.23;;;0.65;;
21657;SDS011;10990;48.174;9.782;2023-03-13T15:05:46;1.27;;;0.60;;
21657;SDS011;10990;48.174;9.782;2023-03-13T15:08:15;1.90;;;0.63;;
21657;SDS011;10990;48.174;9.782;2023-03-13T15:10:43;1.15;;;0.80;;
21657;SDS011;10990;48.174;9.782;2023-03-13T15:13:16;1.70;;;0.80;;
21657;SDS011;10990;48.174;9.782;2023-03-13T15:15:49;0.65;;;0.65;;
21657;SDS011;10990;48.174;9.782;2023-03-13T15:18:17;1.45;;;0.63;;
21657;SDS011;10990;48.174;9.782;2023-03-13T15:20:48;0.82;;;0.63;;
21657;SDS011;10990;48.174;9.782;2023-03-13T15:23:16;1.90;;;0.60;;
21657;SDS011;10990;48.174;9.782;2023-03-13T15:25:43;1.50;;;0.80;;
21657;SDS011;10990;48.174;9.782;2023-03-13T15:28:12;2.45;;;0.90;;
21657;SDS011;10990;48.174;9.782;2023-03-13T15:30:42;1.48;;;0.70;;
21657;SDS011;10990;48.174;9.782;2023-03-13T15:33:11;1.17;;;0.70;;
21657;SDS011;10990;48.174;9.782;2023-03-13T15:35:40;1.45;;;0.50;;
21657;SDS011;10990;48.174;9.782;2023-03-13T15:38:09;2.92;;;1.58;;
21657;SDS011;10990;48.174;9.782;2023-03-13T15:40:39;1.85;;;0.80;;
21657;SDS011;10990;48.174;9.782;2023-03-13T15:43:06;1.20;;;0.80;;
21657;SDS011;10990;48.174;9.782;2023-03-13T15:45:34;1.77;;;0.45;;
21657;SDS011;10990;48.174;9.782;2023-03-13T15:48:04;2.40;;;0.70;;
21657;SDS011;10990;48.174;9.782;2023-03-13T15:50:40;2.13;;;0.55;;
21657;SDS011;10990;48.174;9.782;2023-03-13T15:53:10;1.75;;;0.88;;